sensor_id;sensor_type;location;lat;lon;timestamp;temperature;humidity
2623;DHT22;1321;48.690;9.022;2022-07-18T00:02:21;23.60;7.20
2623;DHT22;1321;48.690;9.022;2022-07-18T00:04:51;23.60;7.40
2623;DHT22;1321;48.690;9.022;2022-07-18T00:07:20;23.50;6.70
2623;DHT22;1321;48.690;9.022;2022-07-18T00:09:48;23.50;7.20
2623;DHT22;1321;48.690;9.022;2022-07-18T00:12:16;23.50;7.30
2623;DHT22;1321;48.690;9.022;2022-07-18T00:14:45;23.50;4.70
2623;DHT22;1321;48.690;9.022;2022-07-18T00:17:13;23.40;6.40
2623;DHT22;1321;48.690;9.022;2022-07-18T00:19:41;23.40;5.60
2623;DHT22;1321;48.690;9.022;2022-07-18T00:22:11;23.40;6.30
2623;DHT22;1321;48.690;9.022;2022-07-18T00:24:39;23.30;5.50
2623;DHT22;1321;48.690;9.022;2022-07-18T00:27:07;23.30;5.40
2623;DHT22;1321;48.690;9.022;2022-07-18T00:29:35;23.30;5.50
2623;DHT22;1321;48.690;9.022;2022-07-18T00:32:06;23.30;5.70
2623;DHT22;1321;48.690;9.022;2022-07-18T00:34:35;23.20;5.00
2623;DHT22;1321;48.690;9.022;2022-07-18T00:37:03;23.20;4.90
2623;DHT22;1321;48.690;9.022;2022-07-18T00:39:32;23.20;5.40
2623;DHT22;1321;48.690;9.022;2022-07-18T00:42:00;23.10;4.90
2623;DHT22;1321;48.690;9.022;2022-07-18T00:44:29;23.10;4.60
2623;DHT22;1321;48.690;9.022;2022-07-18T00:46:59;23.10;4.70
2623;DHT22;1321;48.690;9.022;2022-07-18T00:49:28;23.10;3.80
2623;DHT22;1321;48.690;9.022;2022-07-18T00:51:57;23.00;4.20
2623;DHT22;1321;48.690;9.022;2022-07-18T00:54:25;23.00;3.30
2623;DHT22;1321;48.690;9.022;2022-07-18T00:56:54;23.00;4.10
2623;DHT22;1321;48.690;9.022;2022-07-18T00:59:24;23.00;4.50
2623;DHT22;1321;48.690;9.022;2022-07-18T01:02:13;22.90;3.80
2623;DHT22;1321;48.690;9.022;2022-07-18T01:04:40;22.90;4.70
2623;DHT22;1321;48.690;9.022;2022-07-18T01:07:08;22.90;4.20
2623;DHT22;1321;48.690;9.022;2022-07-18T01:09:37;22.80;3.60
2623;DHT22;1321;48.690;9.022;2022-07-18T01:12:07;22.80;2.90
2623;DHT22;1321;48.690;9.022;2022-07-18T01:14:37;22.80;2.50
2623;DHT22;1321;48.690;9.022;2022-07-18T01:17:12;22.80;2.00
2623;DHT22;1321;48.690;9.022;2022-07-18T01:19:41;22.70;1.30
2623;DHT22;1321;48.690;9.022;2022-07-18T01:22:12;22.70;2.80
2623;DHT22;1321;48.690;9.022;2022-07-18T01:24:40;22.60;1.80
2623;DHT22;1321;48.690;9.022;2022-07-18T01:27:09;22.60;2.10
2623;DHT22;1321;48.690;9.022;2022-07-18T01:29:40;22.60;1.40
2623;DHT22;1321;48.690;9.022;2022-07-18T01:32:10;22.50;2.20
2623;DHT22;1321;48.690;9.022;2022-07-18T01:34:39;22.50;1.20
2623;DHT22;1321;48.690;9.022;2022-07-18T01:37:08;22.50;1.10
2623;DHT22;1321;48.690;9.022;2022-07-18T01:39:38;22.50;12.20
2623;DHT22;1321;48.690;9.022;2022-07-18T01:42:07;22.40;1.70
2623;DHT22;1321;48.690;9.022;2022-07-18T01:44:37;22.40;1.00
2623;DHT22;1321;48.690;9.022;2022-07-18T01:47:08;22.40;1.00
2623;DHT22;1321;48.690;9.022;2022-07-18T01:49:37;22.40;1.00
2623;DHT22;1321;48.690;9.022;2022-07-18T01:52:06;22.40;1.00
2623;DHT22;1321;48.690;9.022;2022-07-18T01:54:35;22.30;1.00
2623;DHT22;1321;48.690;9.022;2022-07-18T01:57:06;22.30;1.00
2623;DHT22;1321;48.690;9.022;2022-07-18T01:59:35;22.30;1.00
2623;DHT22;1321;48.690;9.022;2022-07-18T02:02:03;22.30;1.00
2623;DHT22;1321;48.690;9.022;2022-07-18T02:04:32;22.30;1.00
2623;DHT22;1321;48.690;9.022;2022-07-18T02:07:18;22.20;1.00
2623;DHT22;1321;48.690;9.022;2022-07-18T02:09:46;22.30;2.20
2623;DHT22;1321;48.690;9.022;2022-07-18T02:12:16;22.20;2.60
2623;DHT22;1321;48.690;9.022;2022-07-18T02:14:44;22.20;1.10
2623;DHT22;1321;48.690;9.022;2022-07-18T02:17:12;22.20;3.40
2623;DHT22;1321;48.690;9.022;2022-07-18T02:19:40;22.20;1.00
2623;DHT22;1321;48.690;9.022;2022-07-18T02:22:09;22.10;1.80
2623;DHT22;1321;48.690;9.022;2022-07-18T02:24:38;22.10;1.00
2623;DHT22;1321;48.690;9.022;2022-07-18T02:27:06;22.10;1.00
2623;DHT22;1321;48.690;9.022;2022-07-18T02:29:36;22.10;1.00
2623;DHT22;1321;48.690;9.022;2022-07-18T02:32:04;22.00;1.00
2623;DHT22;1321;48.690;9.022;2022-07-18T02:34:33;22.10;2.00
2623;DHT22;1321;48.690;9.022;2022-07-18T02:37:01;22.00;1.50
2623;DHT22;1321;48.690;9.022;2022-07-18T02:39:30;22.00;1.00
2623;DHT22;1321;48.690;9.022;2022-07-18T02:41:58;22.00;1.00
2623;DHT22;1321;48.690;9.022;2022-07-18T02:44:26;22.00;1.40
2623;DHT22;1321;48.690;9.022;2022-07-18T02:46:56;22.00;1.20
2623;DHT22;1321;48.690;9.022;2022-07-18T02:49:24;21.90;1.00
2623;DHT22;1321;48.690;9.022;2022-07-18T02:51:57;21.90;1.00
2623;DHT22;1321;48.690;9.022;2022-07-18T02:54:25;21.80;1.00
2623;DHT22;1321;48.690;9.022;2022-07-18T02:56:54;21.80;10.30
2623;DHT22;1321;48.690;9.022;2022-07-18T02:59:22;21.70;1.00
2623;DHT22;1321;48.690;9.022;2022-07-18T03:01:52;21.70;1.00
2623;DHT22;1321;48.690;9.022;2022-07-18T03:04:22;21.70;1.00
2623;DHT22;1321;48.690;9.022;2022-07-18T03:06:50;21.60;1.00
2623;DHT22;1321;48.690;9.022;2022-07-18T03:09:19;21.60;1.00
2623;DHT22;1321;48.690;9.022;2022-07-18T03:11:47;21.70;1.00
2623;DHT22;1321;48.690;9.022;2022-07-18T03:14:16;21.60;1.00
2623;DHT22;1321;48.690;9.022;2022-07-18T03:16:44;21.60;1.00
2623;DHT22;1321;48.690;9.022;2022-07-18T03:19:12;21.60;1.00
2623;DHT22;1321;48.690;9.022;2022-07-18T03:21:42;21.60;1.00
2623;DHT22;1321;48.690;9.022;2022-07-18T03:24:10;21.60;1.00
2623;DHT22;1321;48.690;9.022;2022-07-18T03:26:41;21.50;1.00
2623;DHT22;1321;48.690;9.022;2022-07-18T03:29:09;21.50;1.00
2623;DHT22;1321;48.690;9.022;2022-07-18T03:31:38;21.50;1.00
2623;DHT22;1321;48.690;9.022;2022-07-18T03:34:06;21.50;1.00
2623;DHT22;1321;48.690;9.022;2022-07-18T03:36:36;21.50;1.00
2623;DHT22;1321;48.690;9.022;2022-07-18T03:39:06;21.50;1.30
2623;DHT22;1321;48.690;9.022;2022-07-18T03:41:35;21.40;1.00
2623;DHT22;1321;48.690;9.022;2022-07-18T03:44:05;21.40;1.00
2623;DHT22;1321;48.690;9.022;2022-07-18T03:46:33;21.40;1.00
2623;DHT22;1321;48.690;9.022;2022-07-18T03:49:03;21.40;1.00
2623;DHT22;1321;48.690;9.022;2022-07-18T03:51:32;21.30;1.00
2623;DHT22;1321;48.690;9.022;2022-07-18T03:54:00;21.30;1.00
2623;DHT22;1321;48.690;9.022;2022-07-18T03:56:30;21.30;1.00
2623;DHT22;1321;48.690;9.022;2022-07-18T03:58:58;21.30;1.00
2623;DHT22;1321;48.690;9.022;2022-07-18T04:01:26;21.30;1.00
2623;DHT22;1321;48.690;9.022;2022-07-18T04:03:55;21.30;1.00
2623;DHT22;1321;48.690;9.022;2022-07-18T04:06:23;21.30;1.00
2623;DHT22;1321;48.690;9.022;2022-07-18T04:08:51;21.30;1.00
2623;DHT22;1321;48.690;9.022;2022-07-18T04:11:19;21.30;1.00
2623;DHT22;1321;48.690;9.022;2022-07-18T04:13:52;21.30;1.00
2623;DHT22;1321;48.690;9.022;2022-07-18T04:16:21;21.20;1.00
2623;DHT22;1321;48.690;9.022;2022-07-18T04:18:50;21.20;1.00
2623;DHT22;1321;48.690;9.022;2022-07-18T04:21:18;21.20;1.00
2623;DHT22;1321;48.690;9.022;2022-07-18T04:23:46;21.20;1.00
2623;DHT22;1321;48.690;9.022;2022-07-18T04:26:14;21.20;1.30
2623;DHT22;1321;48.690;9.022;2022-07-18T04:28:43;21.30;1.30
2623;DHT22;1321;48.690;9.022;2022-07-18T04:31:13;21.20;1.00
2623;DHT22;1321;48.690;9.022;2022-07-18T04:33:41;21.30;1.30
2623;DHT22;1321;48.690;9.022;2022-07-18T04:36:09;21.20;1.00
2623;DHT22;1321;48.690;9.022;2022-07-18T04:38:38;21.20;1.00
2623;DHT22;1321;48.690;9.022;2022-07-18T04:41:06;21.10;1.00
2623;DHT22;1321;48.690;9.022;2022-07-18T04:43:35;21.20;1.00
2623;DHT22;1321;48.690;9.022;2022-07-18T04:46:03;21.20;1.00
2623;DHT22;1321;48.690;9.022;2022-07-18T04:48:33;21.10;1.00
2623;DHT22;1321;48.690;9.022;2022-07-18T04:51:01;21.10;1.70
2623;DHT22;1321;48.690;9.022;2022-07-18T04:53:29;21.10;1.70
2623;DHT22;1321;48.690;9.022;2022-07-18T04:55:57;21.20;1.50
2623;DHT22;1321;48.690;9.022;2022-07-18T04:58:25;21.30;1.90
2623;DHT22;1321;48.690;9.022;2022-07-18T05:00:54;21.30;2.40
2623;DHT22;1321;48.690;9.022;2022-07-18T05:03:22;21.40;2.70
2623;DHT22;1321;48.690;9.022;2022-07-18T05:05:53;21.50;3.80
2623;DHT22;1321;48.690;9.022;2022-07-18T05:08:21;21.60;3.60
2623;DHT22;1321;48.690;9.022;2022-07-18T05:10:49;21.60;3.90
2623;DHT22;1321;48.690;9.022;2022-07-18T05:13:17;21.50;3.20
2623;DHT22;1321;48.690;9.022;2022-07-18T05:15:45;21.60;3.60
2623;DHT22;1321;48.690;9.022;2022-07-18T05:18:14;21.60;4.10
2623;DHT22;1321;48.690;9.022;2022-07-18T05:20:42;21.60;4.00
2623;DHT22;1321;48.690;9.022;2022-07-18T05:23:13;21.60;3.80
2623;DHT22;1321;48.690;9.022;2022-07-18T05:25:42;21.70;3.30
2623;DHT22;1321;48.690;9.022;2022-07-18T05:28:10;21.70;2.90
2623;DHT22;1321;48.690;9.022;2022-07-18T05:30:38;21.70;4.90
2623;DHT22;1321;48.690;9.022;2022-07-18T05:33:07;21.80;5.40
2623;DHT22;1321;48.690;9.022;2022-07-18T05:35:35;21.90;6.40
2623;DHT22;1321;48.690;9.022;2022-07-18T05:38:03;21.90;6.30
2623;DHT22;1321;48.690;9.022;2022-07-18T05:40:33;21.90;7.50
2623;DHT22;1321;48.690;9.022;2022-07-18T05:43:01;22.00;6.50
2623;DHT22;1321;48.690;9.022;2022-07-18T05:45:30;22.00;7.40
2623;DHT22;1321;48.690;9.022;2022-07-18T05:47:59;22.00;7.50
2623;DHT22;1321;48.690;9.022;2022-07-18T05:50:27;22.00;7.40
2623;DHT22;1321;48.690;9.022;2022-07-18T05:52:55;22.10;8.10
2623;DHT22;1321;48.690;9.022;2022-07-18T05:55:23;22.10;9.00
2623;DHT22;1321;48.690;9.022;2022-07-18T05:57:53;22.10;9.30
2623;DHT22;1321;48.690;9.022;2022-07-18T06:00:21;22.20;9.10
2623;DHT22;1321;48.690;9.022;2022-07-18T06:02:50;22.20;9.20
2623;DHT22;1321;48.690;9.022;2022-07-18T06:05:18;22.30;10.70
2623;DHT22;1321;48.690;9.022;2022-07-18T06:07:50;22.30;11.10
2623;DHT22;1321;48.690;9.022;2022-07-18T06:10:19;22.40;9.90
2623;DHT22;1321;48.690;9.022;2022-07-18T06:12:47;22.50;11.30
2623;DHT22;1321;48.690;9.022;2022-07-18T06:15:18;22.50;11.50
2623;DHT22;1321;48.690;9.022;2022-07-18T06:17:47;22.60;11.10
2623;DHT22;1321;48.690;9.022;2022-07-18T06:20:16;22.60;11.40
2623;DHT22;1321;48.690;9.022;2022-07-18T06:22:44;22.60;12.10
2623;DHT22;1321;48.690;9.022;2022-07-18T06:25:12;22.70;13.20
2623;DHT22;1321;48.690;9.022;2022-07-18T06:27:40;22.70;13.40
2623;DHT22;1321;48.690;9.022;2022-07-18T06:30:09;22.80;15.20
2623;DHT22;1321;48.690;9.022;2022-07-18T06:32:39;22.80;13.10
2623;DHT22;1321;48.690;9.022;2022-07-18T06:35:08;22.90;14.80
2623;DHT22;1321;48.690;9.022;2022-07-18T06:37:37;22.90;13.40
2623;DHT22;1321;48.690;9.022;2022-07-18T06:40:06;22.90;13.60
2623;DHT22;1321;48.690;9.022;2022-07-18T06:42:35;23.00;13.30
2623;DHT22;1321;48.690;9.022;2022-07-18T06:45:04;23.00;14.70
2623;DHT22;1321;48.690;9.022;2022-07-18T06:47:40;23.10;15.30
2623;DHT22;1321;48.690;9.022;2022-07-18T06:50:10;23.20;15.50
2623;DHT22;1321;48.690;9.022;2022-07-18T06:52:39;23.30;15.50
2623;DHT22;1321;48.690;9.022;2022-07-18T06:55:09;23.30;15.90
2623;DHT22;1321;48.690;9.022;2022-07-18T06:57:37;23.40;16.00
2623;DHT22;1321;48.690;9.022;2022-07-18T07:00:07;23.50;17.20
2623;DHT22;1321;48.690;9.022;2022-07-18T07:02:49;23.50;17.00
2623;DHT22;1321;48.690;9.022;2022-07-18T07:05:20;23.70;18.00
2623;DHT22;1321;48.690;9.022;2022-07-18T07:07:49;23.70;19.10
2623;DHT22;1321;48.690;9.022;2022-07-18T07:10:18;23.80;19.30
2623;DHT22;1321;48.690;9.022;2022-07-18T07:12:47;23.90;18.60
2623;DHT22;1321;48.690;9.022;2022-07-18T07:15:19;24.10;18.80
2623;DHT22;1321;48.690;9.022;2022-07-18T07:17:49;24.20;19.20
2623;DHT22;1321;48.690;9.022;2022-07-18T07:20:17;24.30;20.60
2623;DHT22;1321;48.690;9.022;2022-07-18T07:22:49;24.40;21.30
2623;DHT22;1321;48.690;9.022;2022-07-18T07:25:19;24.50;20.40
2623;DHT22;1321;48.690;9.022;2022-07-18T07:27:48;24.50;20.10
2623;DHT22;1321;48.690;9.022;2022-07-18T07:30:16;24.60;23.30
2623;DHT22;1321;48.690;9.022;2022-07-18T07:32:45;24.70;23.70
2623;DHT22;1321;48.690;9.022;2022-07-18T07:35:17;24.70;22.10
2623;DHT22;1321;48.690;9.022;2022-07-18T07:37:47;24.80;23.10
2623;DHT22;1321;48.690;9.022;2022-07-18T07:40:16;24.80;22.60
2623;DHT22;1321;48.690;9.022;2022-07-18T07:42:45;24.80;22.50
2623;DHT22;1321;48.690;9.022;2022-07-18T07:45:13;24.80;23.90
2623;DHT22;1321;48.690;9.022;2022-07-18T07:47:42;24.90;23.50
2623;DHT22;1321;48.690;9.022;2022-07-18T07:50:11;24.90;24.30
2623;DHT22;1321;48.690;9.022;2022-07-18T07:52:41;24.90;23.30
2623;DHT22;1321;48.690;9.022;2022-07-18T07:55:09;25.00;23.60
2623;DHT22;1321;48.690;9.022;2022-07-18T07:57:37;25.00;24.70
2623;DHT22;1321;48.690;9.022;2022-07-18T08:00:07;25.10;25.00
2623;DHT22;1321;48.690;9.022;2022-07-18T08:02:36;25.10;23.90
2623;DHT22;1321;48.690;9.022;2022-07-18T08:05:05;25.10;23.40
2623;DHT22;1321;48.690;9.022;2022-07-18T08:07:33;25.10;22.70
2623;DHT22;1321;48.690;9.022;2022-07-18T08:10:03;25.20;25.10
2623;DHT22;1321;48.690;9.022;2022-07-18T08:12:32;25.20;35.80
2623;DHT22;1321;48.690;9.022;2022-07-18T08:15:00;25.30;25.60
2623;DHT22;1321;48.690;9.022;2022-07-18T08:17:28;25.30;24.20
2623;DHT22;1321;48.690;9.022;2022-07-18T08:19:56;25.30;24.00
2623;DHT22;1321;48.690;9.022;2022-07-18T08:22:25;25.30;23.80
2623;DHT22;1321;48.690;9.022;2022-07-18T08:24:53;25.40;23.00
2623;DHT22;1321;48.690;9.022;2022-07-18T08:27:22;25.40;25.10
2623;DHT22;1321;48.690;9.022;2022-07-18T08:29:51;25.40;26.10
2623;DHT22;1321;48.690;9.022;2022-07-18T08:32:34;25.50;25.20
2623;DHT22;1321;48.690;9.022;2022-07-18T08:35:03;25.50;24.70
2623;DHT22;1321;48.690;9.022;2022-07-18T08:37:31;25.50;24.60
2623;DHT22;1321;48.690;9.022;2022-07-18T08:39:59;25.50;26.40
2623;DHT22;1321;48.690;9.022;2022-07-18T08:42:29;25.60;25.80
2623;DHT22;1321;48.690;9.022;2022-07-18T08:45:00;25.60;25.40
2623;DHT22;1321;48.690;9.022;2022-07-18T08:47:29;25.60;25.60
2623;DHT22;1321;48.690;9.022;2022-07-18T08:49:58;25.70;25.00
2623;DHT22;1321;48.690;9.022;2022-07-18T08:52:27;25.70;27.10
2623;DHT22;1321;48.690;9.022;2022-07-18T08:55:15;25.70;27.10
2623;DHT22;1321;48.690;9.022;2022-07-18T08:57:54;25.70;26.70
2623;DHT22;1321;48.690;9.022;2022-07-18T09:00:22;25.70;27.10
2623;DHT22;1321;48.690;9.022;2022-07-18T09:02:58;25.80;26.00
2623;DHT22;1321;48.690;9.022;2022-07-18T09:05:28;25.80;25.70
2623;DHT22;1321;48.690;9.022;2022-07-18T09:08:10;25.90;24.90
2623;DHT22;1321;48.690;9.022;2022-07-18T09:10:48;26.00;24.60
2623;DHT22;1321;48.690;9.022;2022-07-18T09:13:21;26.00;26.90
2623;DHT22;1321;48.690;9.022;2022-07-18T09:16:01;26.10;26.30
2623;DHT22;1321;48.690;9.022;2022-07-18T09:18:30;26.20;27.30
2623;DHT22;1321;48.690;9.022;2022-07-18T09:21:05;26.20;26.30
2623;DHT22;1321;48.690;9.022;2022-07-18T09:23:36;26.20;26.70
2623;DHT22;1321;48.690;9.022;2022-07-18T09:26:05;26.10;27.10
2623;DHT22;1321;48.690;9.022;2022-07-18T09:28:48;26.20;26.30
2623;DHT22;1321;48.690;9.022;2022-07-18T09:31:37;26.20;27.20
2623;DHT22;1321;48.690;9.022;2022-07-18T09:34:05;26.20;29.20
2623;DHT22;1321;48.690;9.022;2022-07-18T09:36:33;26.20;29.10
2623;DHT22;1321;48.690;9.022;2022-07-18T09:39:17;26.30;30.00
2623;DHT22;1321;48.690;9.022;2022-07-18T09:41:46;26.40;28.80
2623;DHT22;1321;48.690;9.022;2022-07-18T09:44:16;26.40;31.00
2623;DHT22;1321;48.690;9.022;2022-07-18T09:47:00;26.40;30.00
2623;DHT22;1321;48.690;9.022;2022-07-18T09:49:29;26.50;29.20
2623;DHT22;1321;48.690;9.022;2022-07-18T09:52:05;26.50;29.00
2623;DHT22;1321;48.690;9.022;2022-07-18T09:54:37;26.60;29.30
2623;DHT22;1321;48.690;9.022;2022-07-18T09:57:06;26.60;30.30
2623;DHT22;1321;48.690;9.022;2022-07-18T09:59:36;26.60;32.10
2623;DHT22;1321;48.690;9.022;2022-07-18T10:02:09;26.70;44.20
2623;DHT22;1321;48.690;9.022;2022-07-18T10:04:39;26.70;32.20
2623;DHT22;1321;48.690;9.022;2022-07-18T10:07:07;26.80;33.10
2623;DHT22;1321;48.690;9.022;2022-07-18T10:09:38;27.00;32.00
2623;DHT22;1321;48.690;9.022;2022-07-18T10:12:07;27.00;31.20
2623;DHT22;1321;48.690;9.022;2022-07-18T10:14:37;27.00;35.20
2623;DHT22;1321;48.690;9.022;2022-07-18T10:17:06;27.00;32.50
2623;DHT22;1321;48.690;9.022;2022-07-18T10:19:34;27.00;31.70
2623;DHT22;1321;48.690;9.022;2022-07-18T10:22:04;26.90;33.20
2623;DHT22;1321;48.690;9.022;2022-07-18T10:24:37;26.90;31.90
2623;DHT22;1321;48.690;9.022;2022-07-18T10:27:14;27.00;29.40
2623;DHT22;1321;48.690;9.022;2022-07-18T10:30:10;27.00;32.20
2623;DHT22;1321;48.690;9.022;2022-07-18T10:32:38;27.00;32.50
2623;DHT22;1321;48.690;9.022;2022-07-18T10:35:08;27.10;31.20
2623;DHT22;1321;48.690;9.022;2022-07-18T10:37:38;27.10;33.40
2623;DHT22;1321;48.690;9.022;2022-07-18T10:40:26;27.10;35.00
2623;DHT22;1321;48.690;9.022;2022-07-18T10:46:02;27.10;29.60
2623;DHT22;1321;48.690;9.022;2022-07-18T10:48:50;27.10;32.50
2623;DHT22;1321;48.690;9.022;2022-07-18T10:51:18;27.20;29.80
2623;DHT22;1321;48.690;9.022;2022-07-18T10:54:09;27.20;33.90
2623;DHT22;1321;48.690;9.022;2022-07-18T10:57:06;27.20;34.80
2623;DHT22;1321;48.690;9.022;2022-07-18T10:59:59;27.20;33.50
2623;DHT22;1321;48.690;9.022;2022-07-18T11:02:35;27.20;30.20
2623;DHT22;1321;48.690;9.022;2022-07-18T11:05:32;27.30;29.90
2623;DHT22;1321;48.690;9.022;2022-07-18T11:08:25;27.30;31.60
2623;DHT22;1321;48.690;9.022;2022-07-18T11:11:09;27.40;32.40
2623;DHT22;1321;48.690;9.022;2022-07-18T11:13:39;27.40;30.30
2623;DHT22;1321;48.690;9.022;2022-07-18T11:16:10;27.40;30.80
2623;DHT22;1321;48.690;9.022;2022-07-18T11:19:18;27.40;31.20
2623;DHT22;1321;48.690;9.022;2022-07-18T11:21:56;27.50;28.70
2623;DHT22;1321;48.690;9.022;2022-07-18T11:24:26;27.60;31.30
2623;DHT22;1321;48.690;9.022;2022-07-18T11:26:54;27.70;32.50
2623;DHT22;1321;48.690;9.022;2022-07-18T11:29:22;27.80;32.90
2623;DHT22;1321;48.690;9.022;2022-07-18T11:31:52;27.80;34.50
2623;DHT22;1321;48.690;9.022;2022-07-18T11:34:23;27.90;32.30
2623;DHT22;1321;48.690;9.022;2022-07-18T11:37:07;28.00;34.10
2623;DHT22;1321;48.690;9.022;2022-07-18T11:39:36;28.10;35.30
2623;DHT22;1321;48.690;9.022;2022-07-18T11:42:04;28.20;36.60
2623;DHT22;1321;48.690;9.022;2022-07-18T11:44:32;28.20;37.20
2623;DHT22;1321;48.690;9.022;2022-07-18T11:47:02;28.30;36.40
2623;DHT22;1321;48.690;9.022;2022-07-18T11:49:32;28.40;35.20
2623;DHT22;1321;48.690;9.022;2022-07-18T11:52:01;28.40;37.00
2623;DHT22;1321;48.690;9.022;2022-07-18T11:54:29;28.40;39.00
2623;DHT22;1321;48.690;9.022;2022-07-18T11:56:59;28.40;37.60
2623;DHT22;1321;48.690;9.022;2022-07-18T11:59:38;28.50;39.50
2623;DHT22;1321;48.690;9.022;2022-07-18T12:02:07;28.50;37.70
2623;DHT22;1321;48.690;9.022;2022-07-18T12:04:37;28.50;35.10
2623;DHT22;1321;48.690;9.022;2022-07-18T12:07:16;28.50;37.20
2623;DHT22;1321;48.690;9.022;2022-07-18T12:09:45;28.60;35.10
2623;DHT22;1321;48.690;9.022;2022-07-18T12:12:15;28.50;38.00
2623;DHT22;1321;48.690;9.022;2022-07-18T12:14:58;28.60;36.90
2623;DHT22;1321;48.690;9.022;2022-07-18T12:17:27;28.60;35.10
2623;DHT22;1321;48.690;9.022;2022-07-18T12:20:10;28.60;36.70
2623;DHT22;1321;48.690;9.022;2022-07-18T12:23:05;28.60;36.00
2623;DHT22;1321;48.690;9.022;2022-07-18T12:25:38;28.70;34.80
2623;DHT22;1321;48.690;9.022;2022-07-18T12:28:14;28.70;36.00
2623;DHT22;1321;48.690;9.022;2022-07-18T12:30:42;28.80;36.70
2623;DHT22;1321;48.690;9.022;2022-07-18T12:33:11;28.80;38.00
2623;DHT22;1321;48.690;9.022;2022-07-18T12:35:41;28.90;38.10
2623;DHT22;1321;48.690;9.022;2022-07-18T12:38:11;28.90;39.50
2623;DHT22;1321;48.690;9.022;2022-07-18T12:40:42;29.00;39.50
2623;DHT22;1321;48.690;9.022;2022-07-18T12:43:14;29.00;37.30
2623;DHT22;1321;48.690;9.022;2022-07-18T12:45:43;29.00;38.50
2623;DHT22;1321;48.690;9.022;2022-07-18T12:48:12;29.00;38.40
2623;DHT22;1321;48.690;9.022;2022-07-18T12:50:42;29.00;51.40
2623;DHT22;1321;48.690;9.022;2022-07-18T12:53:12;29.00;37.60
2623;DHT22;1321;48.690;9.022;2022-07-18T12:55:40;29.00;37.10
2623;DHT22;1321;48.690;9.022;2022-07-18T12:58:08;29.00;39.20
2623;DHT22;1321;48.690;9.022;2022-07-18T13:00:38;29.10;43.00
2623;DHT22;1321;48.690;9.022;2022-07-18T13:03:06;29.20;41.10
2623;DHT22;1321;48.690;9.022;2022-07-18T13:05:34;29.20;42.20
2623;DHT22;1321;48.690;9.022;2022-07-18T13:08:05;29.20;43.40
2623;DHT22;1321;48.690;9.022;2022-07-18T13:10:35;29.30;42.80
2623;DHT22;1321;48.690;9.022;2022-07-18T13:13:05;29.40;42.20
2623;DHT22;1321;48.690;9.022;2022-07-18T13:15:34;29.40;41.80
2623;DHT22;1321;48.690;9.022;2022-07-18T13:18:04;29.40;42.80
2623;DHT22;1321;48.690;9.022;2022-07-18T13:20:32;29.30;40.10
2623;DHT22;1321;48.690;9.022;2022-07-18T13:23:00;29.40;41.60
2623;DHT22;1321;48.690;9.022;2022-07-18T13:25:32;29.40;41.40
2623;DHT22;1321;48.690;9.022;2022-07-18T13:28:01;29.50;46.40
2623;DHT22;1321;48.690;9.022;2022-07-18T13:30:29;29.60;42.60
2623;DHT22;1321;48.690;9.022;2022-07-18T13:32:57;29.60;44.60
2623;DHT22;1321;48.690;9.022;2022-07-18T13:35:26;29.60;43.60
2623;DHT22;1321;48.690;9.022;2022-07-18T13:37:54;29.60;43.80
2623;DHT22;1321;48.690;9.022;2022-07-18T13:40:22;29.60;45.00
2623;DHT22;1321;48.690;9.022;2022-07-18T13:42:56;29.60;44.80
2623;DHT22;1321;48.690;9.022;2022-07-18T13:45:24;29.60;46.00
2623;DHT22;1321;48.690;9.022;2022-07-18T13:47:53;29.70;45.10
2623;DHT22;1321;48.690;9.022;2022-07-18T13:50:21;29.70;43.70
2623;DHT22;1321;48.690;9.022;2022-07-18T13:52:49;29.70;44.20
2623;DHT22;1321;48.690;9.022;2022-07-18T13:55:17;29.70;44.80
2623;DHT22;1321;48.690;9.022;2022-07-18T13:57:47;29.70;46.40
2623;DHT22;1321;48.690;9.022;2022-07-18T14:00:16;29.70;43.90
2623;DHT22;1321;48.690;9.022;2022-07-18T14:02:45;29.80;42.50
2623;DHT22;1321;48.690;9.022;2022-07-18T14:05:14;29.90;43.90
2623;DHT22;1321;48.690;9.022;2022-07-18T14:07:43;29.90;43.80
2623;DHT22;1321;48.690;9.022;2022-07-18T14:10:13;29.90;43.50
2623;DHT22;1321;48.690;9.022;2022-07-18T14:12:42;30.00;43.50
2623;DHT22;1321;48.690;9.022;2022-07-18T14:15:11;29.90;44.00
2623;DHT22;1321;48.690;9.022;2022-07-18T14:17:41;29.90;44.30
2623;DHT22;1321;48.690;9.022;2022-07-18T14:20:10;29.90;47.20
2623;DHT22;1321;48.690;9.022;2022-07-18T14:22:40;29.90;44.20
2623;DHT22;1321;48.690;9.022;2022-07-18T14:25:10;30.00;44.60
2623;DHT22;1321;48.690;9.022;2022-07-18T14:27:39;30.00;43.30
2623;DHT22;1321;48.690;9.022;2022-07-18T14:30:10;30.10;43.80
2623;DHT22;1321;48.690;9.022;2022-07-18T14:32:38;30.00;44.90
2623;DHT22;1321;48.690;9.022;2022-07-18T14:35:09;30.10;46.00
2623;DHT22;1321;48.690;9.022;2022-07-18T14:37:38;30.10;46.00
2623;DHT22;1321;48.690;9.022;2022-07-18T14:40:07;30.10;47.30
2623;DHT22;1321;48.690;9.022;2022-07-18T14:42:35;30.10;45.10
2623;DHT22;1321;48.690;9.022;2022-07-18T14:45:06;30.10;46.80
2623;DHT22;1321;48.690;9.022;2022-07-18T14:47:35;30.10;44.50
2623;DHT22;1321;48.690;9.022;2022-07-18T14:50:03;30.10;48.10
2623;DHT22;1321;48.690;9.022;2022-07-18T14:52:33;30.20;44.50
2623;DHT22;1321;48.690;9.022;2022-07-18T14:55:02;30.20;46.00
2623;DHT22;1321;48.690;9.022;2022-07-18T14:57:30;30.20;47.30
2623;DHT22;1321;48.690;9.022;2022-07-18T15:00:00;30.20;46.00
2623;DHT22;1321;48.690;9.022;2022-07-18T15:02:29;30.20;45.20
2623;DHT22;1321;48.690;9.022;2022-07-18T15:04:57;30.20;47.90
2623;DHT22;1321;48.690;9.022;2022-07-18T15:07:25;30.20;47.90
2623;DHT22;1321;48.690;9.022;2022-07-18T15:09:55;30.20;46.50
2623;DHT22;1321;48.690;9.022;2022-07-18T15:12:23;30.30;49.00
2623;DHT22;1321;48.690;9.022;2022-07-18T15:14:51;30.30;46.30
2623;DHT22;1321;48.690;9.022;2022-07-18T15:17:23;30.30;46.40
2623;DHT22;1321;48.690;9.022;2022-07-18T15:19:51;30.30;48.10
2623;DHT22;1321;48.690;9.022;2022-07-18T15:22:19;30.30;47.70
2623;DHT22;1321;48.690;9.022;2022-07-18T15:24:48;30.40;48.40
2623;DHT22;1321;48.690;9.022;2022-07-18T15:27:17;30.30;50.30
2623;DHT22;1321;48.690;9.022;2022-07-18T15:29:46;30.30;51.70
2623;DHT22;1321;48.690;9.022;2022-07-18T15:32:14;30.30;47.40
2623;DHT22;1321;48.690;9.022;2022-07-18T15:34:42;30.30;64.70
2623;DHT22;1321;48.690;9.022;2022-07-18T15:37:10;30.40;47.70
2623;DHT22;1321;48.690;9.022;2022-07-18T15:39:38;30.40;47.80
2623;DHT22;1321;48.690;9.022;2022-07-18T15:42:07;30.20;52.30
2623;DHT22;1321;48.690;9.022;2022-07-18T15:44:36;30.20;48.90
2623;DHT22;1321;48.690;9.022;2022-07-18T15:47:06;30.20;50.50
2623;DHT22;1321;48.690;9.022;2022-07-18T15:49:35;30.20;46.90
2623;DHT22;1321;48.690;9.022;2022-07-18T15:52:05;30.10;49.30
2623;DHT22;1321;48.690;9.022;2022-07-18T15:54:34;29.90;48.00
2623;DHT22;1321;48.690;9.022;2022-07-18T15:57:03;29.80;49.60
2623;DHT22;1321;48.690;9.022;2022-07-18T15:59:31;29.90;45.90
2623;DHT22;1321;48.690;9.022;2022-07-18T16:02:01;30.00;46.00
2623;DHT22;1321;48.690;9.022;2022-07-18T16:04:29;30.00;46.50
2623;DHT22;1321;48.690;9.022;2022-07-18T16:06:57;30.00;45.50
2623;DHT22;1321;48.690;9.022;2022-07-18T16:09:25;30.40;48.40
2623;DHT22;1321;48.690;9.022;2022-07-18T16:11:54;30.10;48.90
2623;DHT22;1321;48.690;9.022;2022-07-18T16:14:22;30.10;48.60
2623;DHT22;1321;48.690;9.022;2022-07-18T16:16:50;30.10;50.70
2623;DHT22;1321;48.690;9.022;2022-07-18T16:19:20;30.10;47.20
2623;DHT22;1321;48.690;9.022;2022-07-18T16:21:48;30.10;49.00
2623;DHT22;1321;48.690;9.022;2022-07-18T16:24:16;30.10;48.40
2623;DHT22;1321;48.690;9.022;2022-07-18T16:26:44;30.10;48.70
2623;DHT22;1321;48.690;9.022;2022-07-18T16:29:12;30.10;46.10
2623;DHT22;1321;48.690;9.022;2022-07-18T16:31:40;30.10;46.20